CES258 ZYHB-ZSPD
Flight info
| Callsign | CES258 |
|---|---|
| Flight time | N/A |
| Altitude | 38100 |
| Route | DUK19D DUKIR W655 NIMEM W205 NULRA A588 UDETI W106 MAKNO W5 TAO/K0902S1190 DCT URBAD W172 LATUX W108 MATNU W115 PINOT |
| Aircraft | A346/H-SDE2E3FGHIJ3J4J5M1RWXY/LB1D1 |
Departure
| Time | 2026-05-04 06:18 |
|---|---|
| Airport | Harbin Taiping International Airport (ZYHB) |
Arrival
| Time | N/A |
|---|---|
| Airport | Shanghai Pudong International Airport (ZSPD) |
| Time | Latitude | Longitude | Altitude | Speed | Heading |
|---|---|---|---|---|---|
| 2026-05-04 05:58 | 45.60556 | 126.22099 | 481 ft | 0 kts | 40° |
| 2026-05-04 06:11 | 45.60498 | 126.21979 | 473 ft | 0 kts | 130° |
| 2026-05-04 06:13 | 45.60494 | 126.21986 | 473 ft | 2 kts | 130° |
| 2026-05-04 06:14 | 45.60225 | 126.22449 | 479 ft | 18 kts | 129° |
| 2026-05-04 06:14 | 45.60141 | 126.22595 | 477 ft | 20 kts | 129° |
| 2026-05-04 06:15 | 45.60044 | 126.22752 | 481 ft | 22 kts | 132° |
| 2026-05-04 06:15 | 45.59942 | 126.22924 | 479 ft | 24 kts | 130° |
| 2026-05-04 06:15 | 45.59866 | 126.23108 | 481 ft | 17 kts | 62° |
| 2026-05-04 06:15 | 45.59974 | 126.23228 | 479 ft | 21 kts | 38° |
| 2026-05-04 06:16 | 45.60098 | 126.23365 | 478 ft | 24 kts | 39° |
| 2026-05-04 06:16 | 45.60214 | 126.23501 | 477 ft | 18 kts | 39° |
| 2026-05-04 06:16 | 45.60306 | 126.23630 | 472 ft | 19 kts | 69° |
| 2026-05-04 06:16 | 45.60250 | 126.23778 | 473 ft | 16 kts | 148° |
| 2026-05-04 06:17 | 45.60168 | 126.23736 | 474 ft | 12 kts | 237° |
| 2026-05-04 06:17 | 45.60094 | 126.23646 | 478 ft | 21 kts | 218° |
| 2026-05-04 06:17 | 45.59724 | 126.23212 | 481 ft | 113 kts | 220° |
| 2026-05-04 06:17 | 45.58914 | 126.22263 | 545 ft | 180 kts | 221° |
| 2026-05-04 06:18 | 45.57910 | 126.21034 | 1296 ft | 194 kts | 222° |
| 2026-05-04 06:18 | 45.56878 | 126.19837 | 2585 ft | 190 kts | 222° |
| 2026-05-04 06:18 | 45.55826 | 126.18609 | 3557 ft | 200 kts | 221° |
| 2026-05-04 06:20 | 45.46410 | 126.07668 | 9253 ft | 276 kts | 224° |
| 2026-05-04 06:20 | 45.44908 | 126.05921 | 10118 ft | 283 kts | 225° |